createdAt,value
2024-04-14T00:00:50.527Z,217.53
2024-04-14T00:01:57.098Z,218.03
2024-04-14T00:03:03.679Z,218.63
2024-04-14T00:04:10.474Z,217.23
2024-04-14T00:05:17.237Z,215.13
2024-04-14T00:06:23.828Z,214.63
2024-04-14T00:07:30.410Z,212.67
2024-04-14T00:08:36.983Z,210.67
2024-04-14T00:09:43.632Z,209.50
2024-04-14T00:10:50.215Z,211.37
2024-04-14T00:11:56.782Z,213.77
2024-04-14T00:13:03.459Z,212.73
2024-04-14T00:14:10.035Z,212.33
2024-04-14T00:15:16.607Z,204.10
2024-04-14T00:16:23.246Z,210.23
2024-04-14T00:17:29.819Z,209.50
2024-04-14T00:18:36.974Z,208.63
2024-04-14T00:19:44.062Z,209.37
2024-04-14T00:20:50.901Z,209.37
2024-04-14T00:21:57.526Z,208.30
2024-04-14T00:23:04.100Z,200.17
2024-04-14T00:24:10.671Z,205.67
2024-04-14T00:25:17.307Z,205.23
2024-04-14T00:26:23.853Z,199.20
2024-04-14T00:27:30.472Z,206.40
2024-04-14T00:28:37.024Z,206.93
2024-04-14T00:29:43.626Z,202.00
2024-04-14T00:30:50.268Z,207.93
2024-04-14T00:31:56.861Z,208.63
2024-04-14T00:33:03.609Z,209.50
2024-04-14T00:34:10.252Z,209.07
2024-04-14T00:35:16.839Z,207.60
2024-04-14T00:36:23.465Z,208.73
2024-04-14T00:37:30.035Z,209.17
2024-04-14T00:38:36.622Z,209.80
2024-04-14T00:39:43.244Z,209.93
2024-04-14T00:40:49.801Z,211.73
2024-04-14T00:41:56.375Z,211.93
2024-04-14T00:43:03.175Z,211.47
2024-04-14T00:44:09.754Z,209.13
2024-04-14T00:45:16.354Z,201.37
2024-04-14T00:46:22.959Z,210.00
2024-04-14T00:47:29.555Z,209.67
2024-04-14T00:48:36.272Z,202.93
2024-04-14T00:49:42.939Z,209.03
2024-04-14T00:50:49.526Z,207.40
2024-04-14T00:51:56.143Z,207.87
2024-04-14T00:53:02.723Z,208.23
2024-04-14T00:54:09.307Z,208.80
2024-04-14T00:55:15.915Z,210.90
2024-04-14T00:56:22.497Z,209.13
2024-04-14T00:57:29.107Z,206.60
2024-04-14T00:58:35.727Z,204.57
2024-04-14T00:59:42.290Z,206.17
2024-04-14T01:00:48.957Z,197.47
2024-04-14T01:01:55.548Z,201.20
2024-04-14T01:03:02.158Z,201.97
2024-04-14T01:04:08.796Z,201.63
2024-04-14T01:05:15.393Z,201.73
2024-04-14T01:06:22.033Z,201.47
2024-04-14T01:07:28.598Z,203.23
2024-04-14T01:08:35.189Z,203.90
2024-04-14T01:09:41.797Z,196.03
2024-04-14T01:10:48.462Z,202.03
2024-04-14T01:11:55.060Z,204.20
2024-04-14T01:13:01.726Z,205.77
2024-04-14T01:14:08.296Z,205.67
2024-04-14T01:15:14.877Z,206.87
2024-04-14T01:16:21.465Z,207.87
2024-04-14T01:17:28.147Z,207.03
2024-04-14T01:18:34.975Z,205.83
2024-04-14T01:19:41.580Z,205.10
2024-04-14T01:20:48.193Z,203.83
2024-04-14T01:21:54.862Z,202.77
2024-04-14T01:23:01.469Z,203.63
2024-04-14T01:24:08.069Z,204.90
2024-04-14T01:25:14.635Z,206.07
2024-04-14T01:26:21.246Z,206.17
2024-04-14T01:27:27.846Z,205.23
2024-04-14T01:28:34.432Z,206.70
2024-04-14T01:29:41.043Z,206.70
2024-04-14T01:30:47.651Z,207.57
2024-04-14T01:31:54.263Z,199.43
2024-04-14T01:33:00.919Z,206.47
2024-04-14T01:34:07.510Z,206.90
2024-04-14T01:35:14.103Z,206.17
2024-04-14T01:36:20.685Z,204.77
2024-04-14T01:37:27.266Z,199.47
2024-04-14T01:38:33.892Z,206.33
2024-04-14T01:39:40.492Z,207.70
2024-04-14T01:40:47.088Z,204.83
2024-04-14T01:41:53.672Z,203.80
2024-04-14T01:43:00.279Z,204.43
2024-04-14T01:44:06.875Z,204.80
2024-04-14T01:45:13.460Z,203.97
2024-04-14T01:46:20.063Z,202.97
2024-04-14T01:47:26.685Z,200.20
2024-04-14T01:48:33.280Z,201.07
2024-04-14T01:49:39.909Z,204.40
2024-04-14T01:50:46.477Z,207.17
2024-04-14T01:51:53.128Z,201.33
2024-04-14T01:52:59.747Z,206.77
2024-04-14T01:54:06.315Z,203.97
2024-04-14T01:55:12.924Z,202.87
2024-04-14T01:56:19.532Z,202.90
2024-04-14T01:57:26.136Z,201.87
2024-04-14T01:58:33.392Z,200.47
2024-04-14T01:59:39.986Z,198.60
2024-04-14T02:00:46.691Z,198.80
2024-04-14T02:01:53.305Z,197.97
2024-04-14T02:02:59.933Z,197.20
2024-04-14T02:04:06.661Z,196.00
2024-04-14T02:05:13.280Z,197.67
2024-04-14T02:06:19.876Z,197.77
2024-04-14T02:07:26.479Z,197.00
2024-04-14T02:08:33.069Z,194.87
2024-04-14T02:09:39.668Z,193.73
2024-04-14T02:10:46.247Z,192.33
2024-04-14T02:11:52.845Z,191.03
2024-04-14T02:12:59.497Z,183.83
2024-04-14T02:14:06.066Z,191.13
2024-04-14T02:15:12.645Z,193.13
2024-04-14T02:16:19.239Z,194.30
2024-04-14T02:17:25.882Z,194.20
2024-04-14T02:18:32.515Z,192.07
2024-04-14T02:19:39.183Z,192.13
2024-04-14T02:20:45.717Z,192.50
2024-04-14T02:21:52.317Z,192.03
2024-04-14T02:22:58.939Z,194.00
2024-04-14T02:24:05.519Z,196.57
2024-04-14T02:25:12.124Z,198.83
2024-04-14T02:26:18.690Z,199.47
2024-04-14T02:27:25.302Z,199.27
2024-04-14T02:28:31.875Z,197.20
2024-04-14T02:29:38.454Z,197.50
2024-04-14T02:30:45.117Z,196.50
2024-04-14T02:31:51.704Z,197.33
2024-04-14T02:32:58.311Z,195.83
2024-04-14T02:34:04.917Z,193.33
2024-04-14T02:35:11.482Z,193.30
2024-04-14T02:36:18.089Z,194.43
2024-04-14T02:37:24.694Z,193.83
2024-04-14T02:38:31.279Z,194.33
2024-04-14T02:39:37.952Z,196.33
2024-04-14T02:40:44.578Z,196.03
2024-04-14T02:41:51.141Z,191.50
2024-04-14T02:42:57.825Z,199.20
2024-04-14T02:44:04.445Z,198.70
2024-04-14T02:45:11.046Z,198.93
2024-04-14T02:46:17.732Z,198.93
2024-04-14T02:47:24.309Z,199.67
2024-04-14T02:48:31.032Z,199.17
2024-04-14T02:49:37.639Z,198.37
2024-04-14T02:50:44.223Z,195.47
2024-04-14T02:51:50.846Z,194.77
2024-04-14T02:52:57.443Z,191.67
2024-04-14T02:54:04.010Z,191.03
2024-04-14T02:55:10.590Z,189.80
2024-04-14T02:56:17.213Z,185.03
2024-04-14T02:57:23.792Z,192.73
2024-04-14T02:58:30.413Z,191.27
2024-04-14T02:59:36.992Z,183.87
2024-04-14T03:00:43.700Z,190.60
2024-04-14T03:01:50.321Z,191.40
2024-04-14T03:02:56.949Z,190.77
2024-04-14T03:04:03.635Z,189.67
2024-04-14T03:05:10.262Z,183.57
2024-04-14T03:06:16.883Z,191.10
2024-04-14T03:07:23.441Z,191.67
2024-04-14T03:08:30.046Z,194.33
2024-04-14T03:09:36.687Z,194.23
2024-04-14T03:10:43.274Z,191.07
2024-04-14T03:11:49.870Z,189.47
2024-04-14T03:12:56.525Z,190.57
2024-04-14T03:14:03.148Z,193.50
2024-04-14T03:15:09.730Z,193.37
2024-04-14T03:16:16.350Z,194.23
2024-04-14T03:17:22.918Z,194.00
2024-04-14T03:18:29.525Z,192.33
2024-04-14T03:19:36.077Z,184.80
2024-04-14T03:20:42.683Z,191.07
2024-04-14T03:21:49.332Z,190.87
2024-04-14T03:22:55.940Z,192.83
2024-04-14T03:24:02.523Z,194.73
2024-04-14T03:25:09.112Z,197.17
2024-04-14T03:26:15.707Z,198.43
2024-04-14T03:27:22.308Z,199.53
2024-04-14T03:28:28.888Z,191.27
2024-04-14T03:29:35.484Z,195.63
2024-04-14T03:30:42.147Z,195.13
2024-04-14T03:31:48.815Z,196.60
2024-04-14T03:32:55.503Z,199.50
2024-04-14T03:34:02.110Z,202.17
2024-04-14T03:35:08.693Z,202.73
2024-04-14T03:36:15.269Z,199.77
2024-04-14T03:37:21.850Z,191.30
2024-04-14T03:38:28.457Z,197.00
2024-04-14T03:39:35.096Z,196.63
2024-04-14T03:40:41.659Z,196.00
2024-04-14T03:41:48.255Z,195.43
2024-04-14T03:42:54.931Z,196.40
2024-04-14T03:44:01.608Z,195.07
2024-04-14T03:45:08.194Z,192.37
2024-04-14T03:46:14.792Z,192.60
2024-04-14T03:47:21.496Z,192.03
2024-04-14T03:48:28.198Z,192.23
2024-04-14T03:49:34.822Z,190.87
2024-04-14T03:50:41.403Z,190.00
2024-04-14T03:51:48.040Z,190.13
2024-04-14T03:52:54.663Z,191.77
2024-04-14T03:54:01.235Z,193.33
2024-04-14T03:55:07.836Z,192.93
2024-04-14T03:56:14.421Z,192.23
2024-04-14T03:57:21.001Z,192.83
2024-04-14T03:58:27.601Z,191.43
2024-04-14T03:59:34.199Z,191.83
2024-04-14T04:00:40.835Z,193.30
2024-04-14T04:01:47.441Z,192.80
2024-04-14T04:02:54.002Z,183.50
2024-04-14T04:04:00.675Z,190.30
2024-04-14T04:05:07.243Z,188.87
2024-04-14T04:06:13.831Z,188.03
2024-04-14T04:07:20.426Z,188.63
2024-04-14T04:08:26.993Z,183.37
2024-04-14T04:09:33.616Z,191.30
2024-04-14T04:10:40.171Z,192.60
2024-04-14T04:11:46.752Z,192.63
2024-04-14T04:12:53.465Z,192.70
2024-04-14T04:14:00.080Z,190.93
2024-04-14T04:15:06.669Z,190.03
2024-04-14T04:16:13.244Z,190.47
2024-04-14T04:17:19.850Z,190.47
2024-04-14T04:18:26.744Z,191.93
2024-04-14T04:19:33.477Z,193.17
2024-04-14T04:20:40.053Z,193.03
2024-04-14T04:21:46.687Z,191.97
2024-04-14T04:22:53.255Z,189.43
2024-04-14T04:23:59.840Z,188.23
2024-04-14T04:25:06.456Z,187.50
2024-04-14T04:26:13.034Z,184.70
2024-04-14T04:27:19.611Z,177.70
2024-04-14T04:28:26.214Z,183.97
2024-04-14T04:29:32.773Z,185.00
2024-04-14T04:30:39.417Z,183.17
2024-04-14T04:31:45.971Z,182.60
2024-04-14T04:32:52.624Z,178.77
2024-04-14T04:33:59.323Z,185.93
2024-04-14T04:35:05.912Z,184.50
2024-04-14T04:36:12.511Z,184.53
2024-04-14T04:37:19.096Z,184.07
2024-04-14T04:38:25.677Z,179.67
2024-04-14T04:39:32.379Z,185.00
2024-04-14T04:40:38.950Z,184.03
2024-04-14T04:41:45.575Z,181.90
2024-04-14T04:42:52.172Z,182.00
2024-04-14T04:43:58.739Z,180.90
2024-04-14T04:45:05.333Z,179.27
2024-04-14T04:46:11.903Z,179.93
2024-04-14T04:47:18.495Z,180.67
2024-04-14T04:48:25.328Z,182.03
2024-04-14T04:49:32.041Z,180.13
2024-04-14T04:50:38.669Z,179.83
2024-04-14T04:51:45.314Z,180.47
2024-04-14T04:52:51.921Z,181.10
2024-04-14T04:53:58.528Z,181.43
2024-04-14T04:55:05.187Z,181.47
2024-04-14T04:56:11.743Z,179.20
2024-04-14T04:57:18.316Z,179.40
2024-04-14T04:58:24.897Z,180.10
2024-04-14T04:59:31.515Z,178.93
2024-04-14T05:00:38.149Z,177.97
2024-04-14T05:01:44.803Z,176.87
2024-04-14T05:02:51.416Z,176.40
2024-04-14T05:03:58.098Z,177.07
2024-04-14T05:05:07.379Z,177.53
2024-04-14T05:06:13.967Z,176.17
2024-04-14T05:07:20.540Z,172.53
2024-04-14T05:08:27.130Z,173.93
2024-04-14T05:09:33.718Z,173.97
2024-04-14T05:10:40.317Z,175.10
2024-04-14T05:11:46.910Z,177.67
2024-04-14T05:12:53.545Z,178.80
2024-04-14T05:14:00.155Z,179.30
2024-04-14T05:15:06.716Z,178.37
2024-04-14T05:16:13.331Z,179.23
2024-04-14T05:17:19.915Z,179.10
2024-04-14T05:18:26.607Z,179.53
2024-04-14T05:19:33.277Z,179.97
2024-04-14T05:20:39.856Z,178.67
2024-04-14T05:21:46.525Z,177.87
2024-04-14T05:22:53.114Z,179.00
2024-04-14T05:23:59.702Z,179.13
2024-04-14T05:25:06.350Z,177.40
2024-04-14T05:26:12.951Z,176.97
2024-04-14T05:27:19.550Z,177.23
2024-04-14T05:28:26.133Z,178.57
2024-04-14T05:29:32.730Z,179.07
2024-04-14T05:30:39.394Z,179.87
2024-04-14T05:31:45.988Z,180.40
2024-04-14T05:32:52.574Z,182.67
2024-04-14T05:33:59.148Z,181.00
2024-04-14T05:35:05.749Z,179.23
2024-04-14T05:36:12.342Z,177.40
2024-04-14T05:37:18.915Z,176.23
2024-04-14T05:38:25.557Z,176.53
2024-04-14T05:39:32.221Z,174.43
2024-04-14T05:40:38.841Z,174.13
2024-04-14T05:41:45.448Z,175.07
2024-04-14T05:42:52.060Z,175.30
2024-04-14T05:43:58.651Z,178.10
2024-04-14T05:45:05.226Z,179.10
2024-04-14T05:46:11.861Z,177.87
2024-04-14T05:47:18.440Z,178.30
2024-04-14T05:48:25.098Z,178.83
2024-04-14T05:49:31.753Z,181.27
2024-04-14T05:50:38.364Z,180.87
2024-04-14T05:51:45.025Z,180.90
2024-04-14T05:52:51.612Z,179.47
2024-04-14T05:53:58.186Z,172.43
2024-04-14T05:55:04.823Z,177.83
2024-04-14T05:56:11.382Z,178.60
2024-04-14T05:57:18.022Z,179.63
2024-04-14T05:58:24.587Z,179.97
2024-04-14T05:59:31.176Z,179.53
2024-04-14T06:00:37.928Z,178.13
2024-04-14T06:01:44.705Z,171.07
2024-04-14T06:02:51.331Z,175.30
2024-04-14T06:03:57.958Z,174.67
2024-04-14T06:05:04.776Z,174.77
2024-04-14T06:06:11.310Z,173.33
2024-04-14T06:07:17.903Z,172.17
2024-04-14T06:08:24.494Z,170.50
2024-04-14T06:09:31.103Z,171.23
2024-04-14T06:10:37.678Z,171.17
2024-04-14T06:11:44.249Z,172.90
2024-04-14T06:12:50.927Z,172.03
2024-04-14T06:13:57.519Z,173.00
2024-04-14T06:15:04.092Z,172.50
2024-04-14T06:16:10.708Z,171.00
2024-04-14T06:17:17.276Z,172.87
2024-04-14T06:18:23.886Z,167.37
2024-04-14T06:19:30.501Z,173.77
2024-04-14T06:20:37.076Z,172.97
2024-04-14T06:21:43.750Z,174.37
2024-04-14T06:22:50.341Z,174.23
2024-04-14T06:23:56.903Z,173.07
2024-04-14T06:25:03.568Z,173.00
2024-04-14T06:26:10.142Z,171.93
2024-04-14T06:27:16.724Z,166.20
2024-04-14T06:28:23.314Z,171.97
2024-04-14T06:29:30.009Z,169.43
2024-04-14T06:30:36.760Z,168.03
2024-04-14T06:31:43.364Z,165.37
2024-04-14T06:32:49.975Z,165.30
2024-04-14T06:33:56.670Z,164.27
2024-04-14T06:35:03.315Z,164.40
2024-04-14T06:36:09.879Z,160.27
2024-04-14T06:37:16.498Z,166.87
2024-04-14T06:38:23.060Z,168.07
2024-04-14T06:39:29.719Z,168.80
2024-04-14T06:40:36.270Z,168.93
2024-04-14T06:41:42.840Z,166.67
2024-04-14T06:42:49.496Z,165.80
2024-04-14T06:43:56.031Z,167.67
2024-04-14T06:45:02.662Z,168.43
2024-04-14T06:46:09.271Z,168.93
2024-04-14T06:47:15.965Z,168.27
2024-04-14T06:48:22.577Z,167.60
2024-04-14T06:49:29.140Z,168.00
2024-04-14T06:50:35.763Z,167.30
2024-04-14T06:51:42.368Z,168.20
2024-04-14T06:52:48.914Z,169.53
2024-04-14T06:53:55.512Z,169.20
2024-04-14T06:55:02.153Z,169.87
2024-04-14T06:56:08.744Z,170.43
2024-04-14T06:57:15.326Z,170.37
2024-04-14T06:58:21.886Z,172.17
2024-04-14T06:59:28.469Z,166.73
2024-04-14T07:00:35.190Z,173.43
2024-04-14T07:01:41.935Z,171.73
2024-04-14T07:02:48.603Z,170.10
2024-04-14T07:03:55.294Z,169.27
2024-04-14T07:05:01.898Z,169.63
2024-04-14T07:06:08.471Z,167.97
2024-04-14T07:07:15.066Z,162.30
2024-04-14T07:08:21.670Z,169.70
2024-04-14T07:09:28.256Z,171.00
2024-04-14T07:10:34.906Z,171.00
2024-04-14T07:11:41.445Z,172.40
2024-04-14T07:12:48.097Z,174.03
2024-04-14T07:13:54.679Z,173.07
2024-04-14T07:15:01.258Z,174.40
2024-04-14T07:16:07.876Z,174.53
2024-04-14T07:17:14.458Z,172.53
2024-04-14T07:18:21.106Z,170.90
2024-04-14T07:19:27.706Z,171.10
2024-04-14T07:20:34.309Z,169.97
2024-04-14T07:21:40.932Z,167.80
2024-04-14T07:22:47.507Z,159.87
2024-04-14T07:23:54.103Z,163.43
2024-04-14T07:25:00.774Z,163.23
2024-04-14T07:26:08.182Z,164.07
2024-04-14T07:27:14.970Z,165.17
2024-04-14T07:28:21.554Z,166.07
2024-04-14T07:29:28.136Z,163.93
2024-04-14T07:30:34.763Z,163.87
2024-04-14T07:31:41.420Z,165.30
2024-04-14T07:32:48.074Z,164.50
2024-04-14T07:33:54.660Z,161.87
2024-04-14T07:35:01.236Z,163.40
2024-04-14T07:36:07.838Z,162.87
2024-04-14T07:37:14.403Z,162.40
2024-04-14T07:38:21.025Z,162.13
2024-04-14T07:39:27.613Z,160.60
2024-04-14T07:40:34.197Z,160.53
2024-04-14T07:41:40.788Z,160.17
2024-04-14T07:42:47.381Z,158.73
2024-04-14T07:43:53.984Z,159.00
2024-04-14T07:45:00.570Z,158.97
2024-04-14T07:46:07.218Z,159.67
2024-04-14T07:47:13.853Z,160.63
2024-04-14T07:48:20.591Z,162.73
2024-04-14T07:49:27.228Z,162.07
2024-04-14T07:50:33.786Z,160.67
2024-04-14T07:51:40.457Z,160.70
2024-04-14T07:52:47.062Z,161.90
2024-04-14T07:53:53.655Z,153.97
2024-04-14T07:55:00.397Z,160.23
2024-04-14T07:56:07.071Z,158.50
2024-04-14T07:57:13.668Z,159.17
2024-04-14T07:58:20.230Z,161.50
2024-04-14T07:59:26.836Z,160.63
2024-04-14T08:00:33.644Z,159.57
2024-04-14T08:01:40.331Z,157.57
2024-04-14T08:02:46.916Z,156.90
2024-04-14T08:03:57.736Z,150.03
2024-04-14T08:05:05.095Z,155.90
2024-04-14T08:06:11.806Z,156.47
2024-04-14T08:07:18.389Z,155.93
2024-04-14T08:08:24.972Z,157.20
2024-04-14T08:09:31.587Z,159.90
2024-04-14T08:10:38.158Z,160.77
2024-04-14T08:11:44.771Z,157.87
2024-04-14T08:12:51.386Z,155.30
2024-04-14T08:13:57.945Z,154.67
2024-04-14T08:15:04.549Z,155.60
2024-04-14T08:16:11.289Z,156.03
2024-04-14T08:17:17.945Z,155.27
2024-04-14T08:18:24.589Z,153.83
2024-04-14T08:19:31.175Z,146.47
2024-04-14T08:20:37.765Z,150.30
2024-04-14T08:21:44.390Z,149.87
2024-04-14T08:22:50.961Z,150.63
2024-04-14T08:23:57.537Z,150.97
2024-04-14T08:25:04.261Z,151.70
2024-04-14T08:26:10.920Z,152.67
2024-04-14T08:27:17.529Z,153.40
2024-04-14T08:28:24.120Z,154.07
2024-04-14T08:29:30.734Z,154.13
2024-04-14T08:30:37.322Z,154.73
2024-04-14T08:31:43.903Z,153.63
2024-04-14T08:32:50.565Z,151.07
2024-04-14T08:33:57.181Z,142.80
2024-04-14T08:35:03.759Z,147.57
2024-04-14T08:36:10.350Z,147.30
2024-04-14T08:37:19.562Z,146.17
2024-04-14T08:38:27.479Z,147.23
2024-04-14T08:39:34.118Z,149.63
2024-04-14T08:40:40.748Z,152.87
2024-04-14T08:41:47.316Z,151.87
2024-04-14T08:42:53.932Z,145.50
2024-04-14T08:44:00.521Z,149.70
2024-04-14T08:45:07.098Z,150.90
2024-04-14T08:46:14.249Z,151.20
2024-04-14T08:47:20.906Z,149.47
2024-04-14T08:48:27.542Z,149.07
2024-04-14T08:49:34.159Z,148.10
2024-04-14T08:50:40.746Z,148.20
2024-04-14T08:51:47.331Z,149.07
2024-04-14T08:52:53.885Z,150.20
2024-04-14T08:54:00.481Z,151.33
2024-04-14T08:55:07.627Z,153.50
2024-04-14T08:56:14.205Z,150.70
2024-04-14T08:57:20.794Z,147.73
2024-04-14T08:58:27.366Z,146.43
2024-04-14T08:59:33.954Z,140.90
2024-04-14T09:00:40.586Z,145.90
2024-04-14T09:01:47.223Z,146.17
2024-04-14T09:02:53.849Z,147.47
2024-04-14T09:04:00.529Z,148.43
2024-04-14T09:05:07.143Z,144.90
2024-04-14T09:06:13.748Z,151.37
2024-04-14T09:07:20.324Z,152.80
2024-04-14T09:08:26.951Z,147.87
2024-04-14T09:09:33.540Z,151.40
2024-04-14T09:10:40.212Z,148.43
2024-04-14T09:11:46.809Z,146.83
2024-04-14T09:12:53.405Z,146.67
2024-04-14T09:13:59.999Z,149.43
2024-04-14T09:15:06.610Z,148.80
2024-04-14T09:16:13.317Z,148.53
2024-04-14T09:17:19.917Z,148.87
2024-04-14T09:18:26.519Z,148.40
2024-04-14T09:19:33.654Z,148.30
2024-04-14T09:20:41.023Z,149.10
2024-04-14T09:21:47.928Z,147.90
2024-04-14T09:22:54.476Z,148.50
2024-04-14T09:24:01.057Z,144.30
2024-04-14T09:25:07.693Z,149.03
2024-04-14T09:26:14.268Z,147.97
2024-04-14T09:27:20.855Z,146.83
2024-04-14T09:28:27.591Z,144.43
2024-04-14T09:29:34.159Z,144.13
2024-04-14T09:30:40.896Z,142.20
2024-04-14T09:31:47.500Z,142.20
2024-04-14T09:32:54.167Z,142.57
2024-04-14T09:34:00.794Z,142.87
2024-04-14T09:35:07.339Z,144.70
2024-04-14T09:36:13.966Z,145.03
2024-04-14T09:37:20.537Z,143.80
2024-04-14T09:38:27.127Z,143.27
2024-04-14T09:39:33.741Z,140.10
2024-04-14T09:40:40.296Z,139.70
2024-04-14T09:41:46.887Z,137.70
2024-04-14T09:42:53.509Z,136.97
2024-04-14T09:44:00.130Z,138.70
2024-04-14T09:45:06.715Z,140.03
2024-04-14T09:46:13.330Z,140.27
2024-04-14T09:47:19.914Z,141.77
2024-04-14T09:48:26.485Z,143.70
2024-04-14T09:49:33.073Z,144.40
2024-04-14T09:50:39.692Z,145.97
2024-04-14T09:51:46.307Z,145.80
2024-04-14T09:52:52.894Z,142.40
2024-04-14T09:53:59.581Z,138.83
2024-04-14T09:55:06.254Z,138.57
2024-04-14T09:56:12.816Z,139.63
2024-04-14T09:57:19.413Z,136.17
2024-04-14T09:58:25.999Z,139.73
2024-04-14T09:59:32.571Z,140.03
2024-04-14T10:00:39.234Z,140.50
2024-04-14T10:01:45.850Z,139.93
2024-04-14T10:02:52.505Z,140.07
2024-04-14T10:03:59.137Z,140.50
2024-04-14T10:05:05.754Z,140.80
2024-04-14T10:06:12.341Z,140.53
2024-04-14T10:07:18.949Z,141.20
2024-04-14T10:08:25.529Z,142.10
2024-04-14T10:09:32.169Z,143.73
2024-04-14T10:10:38.733Z,144.03
2024-04-14T10:11:45.340Z,143.60
2024-04-14T10:12:51.937Z,141.87
2024-04-14T10:13:58.536Z,142.00
2024-04-14T10:15:08.343Z,142.17
2024-04-14T10:16:15.695Z,142.30
2024-04-14T10:17:22.404Z,141.77
2024-04-14T10:18:29.178Z,142.67
2024-04-14T10:19:35.778Z,142.20
2024-04-14T10:20:44.127Z,140.87
2024-04-14T10:21:52.351Z,141.57
2024-04-14T10:22:58.895Z,137.07
2024-04-14T10:24:05.575Z,141.20
2024-04-14T10:25:12.386Z,141.63
2024-04-14T10:26:19.186Z,142.27
2024-04-14T10:27:25.771Z,141.10
2024-04-14T10:28:32.363Z,141.83
2024-04-14T10:29:38.930Z,141.73
2024-04-14T10:30:45.540Z,137.90
2024-04-14T10:31:52.129Z,141.77
2024-04-14T10:32:58.784Z,141.53
2024-04-14T10:34:05.609Z,140.20
2024-04-14T10:35:12.277Z,139.17
2024-04-14T10:36:18.873Z,139.73
2024-04-14T10:37:25.445Z,139.10
2024-04-14T10:38:32.077Z,134.47
2024-04-14T10:39:38.658Z,139.80
2024-04-14T10:40:45.226Z,140.27
2024-04-14T10:41:51.822Z,142.03
2024-04-14T10:42:58.429Z,140.80
2024-04-14T10:44:05.255Z,137.37
2024-04-14T10:45:11.884Z,134.23
2024-04-14T10:46:18.508Z,134.17
2024-04-14T10:47:25.187Z,135.27
2024-04-14T10:48:31.782Z,137.10
2024-04-14T10:49:38.370Z,138.07
2024-04-14T10:50:47.340Z,135.77
2024-04-14T10:51:54.309Z,134.77
2024-04-14T10:53:00.886Z,134.10
2024-04-14T10:54:07.469Z,131.70
2024-04-14T10:55:14.125Z,132.33
2024-04-14T10:56:20.703Z,132.43
2024-04-14T10:57:27.302Z,131.60
2024-04-14T10:58:33.874Z,130.50
2024-04-14T10:59:40.470Z,129.60
2024-04-14T11:00:47.169Z,128.70
2024-04-14T11:01:53.794Z,128.60
2024-04-14T11:03:00.479Z,129.00
2024-04-14T11:04:07.208Z,125.73
2024-04-14T11:05:13.831Z,130.00
2024-04-14T11:06:20.436Z,131.27
2024-04-14T11:07:27.016Z,129.83
2024-04-14T11:08:33.598Z,128.83
2024-04-14T11:09:40.225Z,129.43
2024-04-14T11:10:46.886Z,130.10
2024-04-14T11:11:53.447Z,129.70
2024-04-14T11:13:00.116Z,129.70
2024-04-14T11:14:06.673Z,130.27
2024-04-14T11:15:13.253Z,131.67
2024-04-14T11:16:19.901Z,130.50
2024-04-14T11:17:26.518Z,126.43
2024-04-14T11:18:33.180Z,129.90
2024-04-14T11:19:39.752Z,131.27
2024-04-14T11:20:46.339Z,130.87
2024-04-14T11:21:52.936Z,130.40
2024-04-14T11:22:59.523Z,127.67
2024-04-14T11:24:06.094Z,126.07
2024-04-14T11:25:12.708Z,126.93
2024-04-14T11:26:19.283Z,126.17
2024-04-14T11:27:25.856Z,127.60
2024-04-14T11:28:32.453Z,127.60
2024-04-14T11:29:39.023Z,128.57
2024-04-14T11:30:45.687Z,129.20
2024-04-14T11:31:52.262Z,131.37
2024-04-14T11:32:58.882Z,130.87
2024-04-14T11:34:08.500Z,130.23
2024-04-14T11:35:16.887Z,131.27
2024-04-14T11:36:23.456Z,131.57
2024-04-14T11:37:30.044Z,132.07
2024-04-14T11:38:36.623Z,134.27
2024-04-14T11:39:43.218Z,131.67
2024-04-14T11:40:49.839Z,137.40
2024-04-14T11:41:56.435Z,136.90
2024-04-14T11:43:03.084Z,135.37
2024-04-14T11:44:09.691Z,132.80
2024-04-14T11:45:16.287Z,129.67
2024-04-14T11:46:22.929Z,129.97
2024-04-14T11:47:29.596Z,128.90
2024-04-14T11:48:36.214Z,129.30
2024-04-14T11:49:42.754Z,128.77
2024-04-14T11:50:49.414Z,127.67
2024-04-14T11:51:56.057Z,126.60
2024-04-14T11:53:02.628Z,127.10
2024-04-14T11:54:09.225Z,128.07
2024-04-14T11:55:15.791Z,126.87
2024-04-14T11:56:22.398Z,128.13
2024-04-14T11:57:28.992Z,128.13
2024-04-14T11:58:35.569Z,127.43
2024-04-14T11:59:42.157Z,127.23
2024-04-14T12:00:48.871Z,127.33
2024-04-14T12:01:55.498Z,126.27
2024-04-14T12:03:02.157Z,128.50
2024-04-14T12:04:08.865Z,129.00
2024-04-14T12:05:15.454Z,125.97
2024-04-14T12:06:22.049Z,125.10
2024-04-14T12:07:28.629Z,125.73
2024-04-14T12:08:35.253Z,125.47
2024-04-14T12:09:41.841Z,126.67
2024-04-14T12:10:48.419Z,126.40
2024-04-14T12:11:54.983Z,125.87
2024-04-14T12:13:01.696Z,121.87
2024-04-14T12:14:08.350Z,126.93
2024-04-14T12:15:14.942Z,127.43
2024-04-14T12:16:21.749Z,128.73
2024-04-14T12:17:28.410Z,128.97
2024-04-14T12:18:35.024Z,128.97
2024-04-14T12:19:41.618Z,127.00
2024-04-14T12:20:48.186Z,127.07
2024-04-14T12:21:54.842Z,126.23
2024-04-14T12:23:01.391Z,125.70
2024-04-14T12:24:11.192Z,125.93
2024-04-14T12:25:18.060Z,125.87
2024-04-14T12:26:24.632Z,125.37
2024-04-14T12:27:31.253Z,124.70
2024-04-14T12:28:37.819Z,125.40
2024-04-14T12:29:44.420Z,123.90
2024-04-14T12:30:52.212Z,126.20
2024-04-14T12:31:59.054Z,128.07
2024-04-14T12:33:05.714Z,128.43
2024-04-14T12:34:12.411Z,130.07
2024-04-14T12:35:18.983Z,129.57
2024-04-14T12:36:25.588Z,130.37
2024-04-14T12:37:32.152Z,129.23
2024-04-14T12:38:38.747Z,126.87
2024-04-14T12:39:45.484Z,124.83
2024-04-14T12:40:52.062Z,122.90
2024-04-14T12:41:58.651Z,120.53
2024-04-14T12:43:05.291Z,121.17
2024-04-14T12:44:11.878Z,115.73
2024-04-14T12:45:18.459Z,118.47
2024-04-14T12:46:25.091Z,118.00
2024-04-14T12:47:31.754Z,117.47
2024-04-14T12:48:38.348Z,117.50
2024-04-14T12:49:44.943Z,117.53
2024-04-14T12:50:52.292Z,118.20
2024-04-14T12:51:58.925Z,120.53
2024-04-14T12:53:06.138Z,120.87
2024-04-14T12:54:12.738Z,121.67
2024-04-14T12:55:19.309Z,121.50
2024-04-14T12:56:25.900Z,122.87
2024-04-14T12:57:32.508Z,124.73
2024-04-14T12:58:39.094Z,120.17
2024-04-14T12:59:45.722Z,123.47
2024-04-14T13:00:52.485Z,122.87
2024-04-14T13:01:59.090Z,122.80
2024-04-14T13:03:05.746Z,120.20
2024-04-14T13:04:12.507Z,120.70
2024-04-14T13:05:19.113Z,121.93
2024-04-14T13:06:25.706Z,123.20
2024-04-14T13:07:32.306Z,123.87
2024-04-14T13:08:38.865Z,121.33
2024-04-14T13:09:45.493Z,120.63
2024-04-14T13:10:52.087Z,118.57
2024-04-14T13:11:58.670Z,117.13
2024-04-14T13:13:05.342Z,117.30
2024-04-14T13:14:11.908Z,113.87
2024-04-14T13:15:18.557Z,118.43
2024-04-14T13:16:25.229Z,118.00
2024-04-14T13:17:31.886Z,118.30
2024-04-14T13:18:38.501Z,117.73
2024-04-14T13:19:45.101Z,118.53
2024-04-14T13:20:51.692Z,120.00
2024-04-14T13:21:58.377Z,120.60
2024-04-14T13:23:04.958Z,120.97
2024-04-14T13:24:11.540Z,121.43
2024-04-14T13:25:18.176Z,121.63
2024-04-14T13:26:24.777Z,119.97
2024-04-14T13:27:31.401Z,120.13
2024-04-14T13:28:37.978Z,119.33
2024-04-14T13:29:44.552Z,115.53
2024-04-14T13:30:51.141Z,110.17
2024-04-14T13:31:57.754Z,115.83
2024-04-14T13:33:04.436Z,117.63
2024-04-14T13:34:11.069Z,119.33
2024-04-14T13:35:17.619Z,119.37
2024-04-14T13:36:24.194Z,117.77
2024-04-14T13:37:30.806Z,122.07
2024-04-14T13:38:37.390Z,122.30
2024-04-14T13:39:43.980Z,121.80
2024-04-14T13:40:50.566Z,122.53
2024-04-14T13:41:57.159Z,123.93
2024-04-14T13:43:03.892Z,125.70
2024-04-14T13:44:10.500Z,125.97
2024-04-14T13:45:17.100Z,126.00
2024-04-14T13:46:23.845Z,125.93
2024-04-14T13:47:30.574Z,126.17
2024-04-14T13:48:37.276Z,126.90
2024-04-14T13:49:43.849Z,128.50
2024-04-14T13:50:50.444Z,129.43
2024-04-14T13:51:57.075Z,126.93